Time;durP1;ratioP1;P1;durP2;ratioP2;P2;SDS_P1;SDS_P2;PMS_P1;PMS_P2;Temp;Humidity;BMP_temperature;BMP_pressure;BME280_temperature;BME280_humidity;BME280_pressure;Samples;Min_cycle;Max_cycle;Signal;HPM_P1;HPM_P2
2023/09/26 00:01:04;;;;;;;5.07;2.70;;;;;;;17.53;62.58;102119.09;5058524;28;20132;-71
2023/09/26 00:03:33;;;;;;;6.00;3.05;;;;;;;17.50;62.70;102109.53;5062045;27;20065;-71
2023/09/26 00:06:02;;;;;;;5.05;2.70;;;;;;;17.51;62.83;102108.47;5061571;27;20393;-70
2023/09/26 00:08:30;;;;;;;4.78;2.67;;;;;;;17.45;62.64;102098.56;5061663;28;20041;-70
2023/09/26 00:10:57;;;;;;;4.47;2.67;;;;;;;17.45;62.70;102105.88;5061717;28;20052;-70
2023/09/26 00:13:25;;;;;;;5.80;2.80;;;;;;;17.47;62.71;102109.19;5061478;28;20076;-71
2023/09/26 00:15:53;;;;;;;6.68;3.38;;;;;;;17.46;62.71;102108.34;5062060;27;20041;-70
2023/09/26 00:18:21;;;;;;;6.18;2.70;;;;;;;17.44;62.75;102105.06;5059748;27;20049;-71
2023/09/26 00:20:50;;;;;;;5.82;2.65;;;;;;;17.44;62.62;102113.19;5060898;28;20429;-71
2023/09/26 00:23:18;;;;;;;7.70;3.45;;;;;;;17.42;62.72;102106.34;5060487;28;20148;-70
2023/09/26 00:25:46;;;;;;;4.38;3.00;;;;;;;17.41;62.59;102110.97;5066722;27;20045;-71
2023/09/26 00:28:14;;;;;;;5.32;3.20;;;;;;;17.40;62.48;102106.59;5051357;28;20473;-71
2023/09/26 00:30:42;;;;;;;5.10;2.78;;;;;;;17.35;62.40;102108.34;5059870;28;20059;-70
2023/09/26 00:33:11;;;;;;;5.22;3.33;;;;;;;17.39;62.77;102112.25;5059661;28;20041;-71
2023/09/26 00:35:39;;;;;;;6.35;2.83;;;;;;;17.36;62.73;102102.69;5063008;27;20044;-70
2023/09/26 00:38:08;;;;;;;5.93;2.80;;;;;;;17.36;62.70;102108.13;5061600;28;20049;-70
2023/09/26 00:40:40;;;;;;;6.03;3.22;;;;;;;17.35;62.57;102105.63;5059288;28;20049;-71
2023/09/26 00:43:08;;;;;;;4.30;2.92;;;;;;;17.34;62.57;102107.53;5060190;27;20048;-71
2023/09/26 00:45:36;;;;;;;8.25;2.88;;;;;;;17.33;62.57;102105.91;5060712;27;20397;-70
2023/09/26 00:48:05;;;;;;;5.55;3.30;;;;;;;17.32;62.52;102100.72;5060378;28;20048;-71
2023/09/26 00:50:33;;;;;;;6.90;3.55;;;;;;;17.31;62.22;102102.59;5059361;28;20482;-71
2023/09/26 00:53:03;;;;;;;3.60;2.45;;;;;;;17.30;62.56;102102.84;5060092;28;20101;-70
2023/09/26 00:55:33;;;;;;;6.00;3.15;;;;;;;17.28;62.37;102103.06;5062002;27;20061;-70
2023/09/26 00:58:01;;;;;;;8.13;2.75;;;;;;;17.28;62.29;102107.69;5059770;27;20511;-70
2023/09/26 01:00:29;;;;;;;5.40;3.08;;;;;;;17.27;62.31;102098.69;5059831;28;20072;-71
2023/09/26 01:02:57;;;;;;;6.05;3.05;;;;;;;17.27;62.56;102103.31;5055701;27;20053;-71
2023/09/26 01:05:26;;;;;;;5.78;2.88;;;;;;;17.25;62.58;102095.38;5092896;27;20085;-70
2023/09/26 01:07:54;;;;;;;4.63;2.90;;;;;;;17.25;62.52;102098.09;5060830;28;20048;-70
2023/09/26 01:10:21;;;;;;;4.95;2.80;;;;;;;17.24;62.49;102093.75;5060453;27;20363;-71
2023/09/26 01:12:51;;;;;;;4.82;3.08;;;;;;;17.23;62.43;102094.81;5059650;28;20053;-71
2023/09/26 01:15:30;;;;;;;4.63;3.00;;;;;;;17.23;62.42;102094.81;5062995;27;20064;-71
2023/09/26 01:17:58;;;;;;;7.22;3.33;;;;;;;17.22;62.42;102093.97;5058130;28;20080;-71
2023/09/26 01:20:28;;;;;;;5.25;3.05;;;;;;;17.21;62.38;102097.75;5058701;28;20069;-71
2023/09/26 01:22:57;;;;;;;6.88;3.20;;;;;;;17.20;62.31;102092.56;5058927;27;20136;-71
2023/09/26 01:25:26;;;;;;;4.97;3.13;;;;;;;17.19;62.42;102086.28;5061636;27;20085;-71
2023/09/26 01:27:57;;;;;;;8.80;2.70;;;;;;;17.19;62.52;102080.03;5058184;27;20124;-71
2023/09/26 01:30:25;;;;;;;6.07;3.15;;;;;;;17.17;62.39;102090.31;5059204;28;20064;-70
2023/09/26 01:32:53;;;;;;;6.13;3.35;;;;;;;17.16;62.46;102086.75;5052535;28;20049;-71
2023/09/26 01:35:21;;;;;;;5.07;2.75;;;;;;;17.15;62.46;102095.16;5053992;27;20052;-71
2023/09/26 01:37:50;;;;;;;6.28;3.20;;;;;;;17.14;62.46;102101.66;5058155;27;20121;-71
2023/09/26 01:40:18;;;;;;;6.03;3.08;;;;;;;17.13;62.23;102095.38;5062153;27;20064;-71
2023/09/26 01:42:47;;;;;;;13.18;3.50;;;;;;;17.13;62.38;102094.56;5058566;28;20113;-71
2023/09/26 01:45:15;;;;;;;4.18;2.60;;;;;;;17.12;62.32;102087.47;5058657;27;20056;-71
2023/09/26 01:47:46;;;;;;;5.78;3.20;;;;;;;17.07;62.40;102087.34;5058441;28;20169;-71
2023/09/26 01:50:14;;;;;;;5.63;3.00;;;;;;;17.10;62.46;102100.47;5059161;28;20440;-71
2023/09/26 01:52:42;;;;;;;6.72;4.05;;;;;;;17.09;62.37;102086.06;5060123;28;20056;-71
2023/09/26 01:55:13;;;;;;;6.20;3.25;;;;;;;17.07;62.39;102084.63;5059442;27;20064;-70
2023/09/26 01:57:41;;;;;;;5.10;3.47;;;;;;;17.04;62.35;102076.94;5059038;27;20048;-71
2023/09/26 02:00:12;;;;;;;6.70;3.58;;;;;;;17.06;62.22;102085.69;5056951;28;20044;-71
2023/09/26 02:02:41;;;;;;;5.93;2.80;;;;;;;17.05;62.27;102081.31;5058768;28;20089;-71
2023/09/26 02:05:10;;;;;;;6.03;3.28;;;;;;;16.91;62.32;102059.81;5056870;28;20045;-70
2023/09/26 02:07:38;;;;;;;5.45;3.42;;;;;;;17.01;62.17;102072.81;5059235;27;20048;-71
2023/09/26 02:10:07;;;;;;;6.40;2.90;;;;;;;17.01;62.08;102067.38;5059240;28;20040;-70
2023/09/26 02:12:37;;;;;;;5.95;3.45;;;;;;;17.01;62.28;102070.09;5059532;28;20052;-71
2023/09/26 02:15:08;;;;;;;8.93;3.65;;;;;;;17.01;62.37;102072.00;5061321;27;20053;-71
2023/09/26 02:17:37;;;;;;;9.00;3.42;;;;;;;17.01;62.29;102080.13;5058882;27;20125;-71
2023/09/26 02:20:11;;;;;;;8.60;3.55;;;;;;;16.99;62.33;102068.69;5058310;28;20076;-71
2023/09/26 02:22:39;;;;;;;7.03;3.15;;;;;;;16.92;62.03;102052.50;5058428;28;20064;-71
2023/09/26 02:25:08;;;;;;;5.70;2.92;;;;;;;16.96;62.24;102063.72;5057622;27;20493;-71
2023/09/26 02:27:36;;;;;;;4.75;3.22;;;;;;;16.90;62.35;102058.16;5058159;27;20049;-71
2023/09/26 02:30:05;;;;;;;5.55;3.38;;;;;;;16.94;62.28;102063.94;5080610;27;20049;-71
2023/09/26 02:32:33;;;;;;;5.55;3.50;;;;;;;16.93;62.27;102059.59;5088394;27;20059;-71
2023/09/26 02:35:03;;;;;;;6.72;3.30;;;;;;;16.91;62.25;102065.25;5078542;27;20045;-71
2023/09/26 02:37:30;;;;;;;5.28;3.25;;;;;;;16.91;62.24;102064.41;5062151;27;20052;-71
2023/09/26 02:39:58;;;;;;;8.10;3.28;;;;;;;16.87;62.17;102053.19;5059412;28;20041;-70
2023/09/26 02:42:26;;;;;;;6.03;3.05;;;;;;;16.89;62.15;102059.22;5057318;27;20049;-71
2023/09/26 02:44:54;;;;;;;6.63;3.50;;;;;;;16.89;62.11;102061.09;5057931;28;20113;-71
2023/09/26 02:47:21;;;;;;;6.25;3.47;;;;;;;16.88;62.16;102063.00;5053835;27;20052;-71
2023/09/26 02:49:49;;;;;;;6.20;3.58;;;;;;;16.87;62.27;102055.91;5058448;27;21227;-71
2023/09/26 02:52:19;;;;;;;5.57;3.10;;;;;;;16.84;62.19;102056.38;5059593;28;20060;-70
2023/09/26 02:54:47;;;;;;;5.25;3.30;;;;;;;16.84;62.25;102056.38;5056089;27;20041;-72
2023/09/26 02:57:15;;;;;;;5.03;3.20;;;;;;;16.83;62.28;102043.88;5044308;28;20061;-71
2023/09/26 02:59:43;;;;;;;6.03;3.10;;;;;;;16.83;62.25;102045.75;5063604;27;20049;-71
2023/09/26 03:02:11;;;;;;;5.30;3.25;;;;;;;16.80;62.22;102032.66;5057601;27;20078;-70
2023/09/26 03:04:39;;;;;;;7.45;3.30;;;;;;;16.81;62.20;102035.13;5055990;27;20045;-71
2023/09/26 03:07:07;;;;;;;6.45;3.00;;;;;;;16.80;62.30;102036.19;5059543;27;20072;-71
2023/09/26 03:09:36;;;;;;;6.30;3.65;;;;;;;16.80;62.29;102038.06;5058097;27;20041;-70
2023/09/26 03:12:06;;;;;;;5.72;3.55;;;;;;;16.79;62.30;102037.25;5058888;28;20045;-70
2023/09/26 03:14:34;;;;;;;6.78;3.33;;;;;;;16.78;62.14;102032.06;5063339;27;20049;-70
2023/09/26 03:17:01;;;;;;;6.15;2.95;;;;;;;16.77;62.23;102036.66;5058497;28;20052;-70
2023/09/26 03:19:29;;;;;;;8.00;3.15;;;;;;;16.76;62.24;102031.47;5069269;27;20049;-70
2023/09/26 03:21:57;;;;;;;6.43;3.50;;;;;;;16.74;62.20;102030.88;5058436;28;20109;-71
2023/09/26 03:24:25;;;;;;;5.30;3.17;;;;;;;16.73;62.30;102021.91;5058281;28;20105;-71
2023/09/26 03:26:54;;;;;;;6.15;3.35;;;;;;;16.72;62.39;102020.25;5059824;27;20427;-71
2023/09/26 03:29:22;;;;;;;9.38;3.97;;;;;;;16.71;62.31;102021.31;5058281;28;20428;-71
2023/09/26 03:31:50;;;;;;;7.93;3.72;;;;;;;16.67;62.20;102020.13;5058644;27;20053;-71
2023/09/26 03:34:18;;;;;;;5.80;3.47;;;;;;;16.68;62.20;102029.91;5043880;27;20064;-71
2023/09/26 03:36:46;;;;;;;6.13;2.92;;;;;;;16.63;62.34;102024.31;5053968;28;20128;-71
2023/09/26 03:39:14;;;;;;;5.20;3.30;;;;;;;16.69;62.43;102033.44;5054070;28;20550;-71
2023/09/26 03:41:43;;;;;;;5.90;3.20;;;;;;;16.68;62.18;102031.81;5056645;27;20109;-71
2023/09/26 03:44:12;;;;;;;8.00;3.63;;;;;;;16.66;62.22;102023.88;5058336;28;20048;-71
2023/09/26 03:46:40;;;;;;;8.07;3.22;;;;;;;16.65;62.16;102026.84;5058775;28;20081;-71
2023/09/26 03:49:08;;;;;;;4.57;3.00;;;;;;;16.64;62.29;102033.28;5054353;27;20045;-71
2023/09/26 03:51:35;;;;;;;10.40;3.58;;;;;;;16.64;62.11;102039.56;5059750;27;20057;-71
2023/09/26 03:54:03;;;;;;;6.20;3.10;;;;;;;16.63;62.16;102020.78;5057981;28;20045;-71
2023/09/26 03:56:31;;;;;;;5.40;3.33;;;;;;;16.62;62.21;102019.97;5057106;28;20057;-71
2023/09/26 03:58:59;;;;;;;5.70;3.45;;;;;;;16.48;62.19;102000.34;5057252;28;20044;-71
2023/09/26 04:01:28;;;;;;;7.28;3.88;;;;;;;16.54;62.28;102015.69;5060258;27;20052;-71
2023/09/26 04:03:56;;;;;;;6.95;3.45;;;;;;;16.59;62.14;102012.28;5059859;27;20081;-71
2023/09/26 04:06:24;;;;;;;9.35;3.05;;;;;;;16.56;62.04;102016.28;5060913;28;20072;-71
2023/09/26 04:08:52;;;;;;;5.25;3.30;;;;;;;16.56;62.25;102018.19;5061919;27;20041;-71
2023/09/26 04:11:20;;;;;;;5.13;3.20;;;;;;;16.55;62.09;102025.50;5061552;27;20057;-71
2023/09/26 04:13:48;;;;;;;5.30;3.08;;;;;;;16.46;62.21;102007.88;5061056;27;20045;-71
2023/09/26 04:16:16;;;;;;;4.60;2.70;;;;;;;16.53;62.12;102013.22;5055990;28;20074;-71
2023/09/26 04:18:46;;;;;;;7.75;3.58;;;;;;;16.53;62.11;102019.47;5063728;27;20045;-71
2023/09/26 04:21:14;;;;;;;5.32;2.95;;;;;;;16.52;62.16;102019.69;5060370;28;20044;-71
2023/09/26 04:23:41;;;;;;;5.78;3.55;;;;;;;16.51;62.05;102012.63;5061039;27;20383;-71
2023/09/26 04:26:13;;;;;;;6.38;3.28;;;;;;;16.41;62.11;102007.75;5061614;27;20045;-71
2023/09/26 04:28:42;;;;;;;4.50;3.10;;;;;;;16.48;62.08;102015.78;5059378;28;20045;-71
2023/09/26 04:31:13;;;;;;;5.07;3.20;;;;;;;16.47;62.14;102011.44;5095799;27;20169;-71
2023/09/26 04:33:41;;;;;;;5.32;3.20;;;;;;;16.44;61.93;102001.88;5130510;27;20503;-71
2023/09/26 04:36:11;;;;;;;6.82;3.25;;;;;;;16.45;62.23;102002.69;5059619;28;20044;-71
2023/09/26 04:38:38;;;;;;;4.53;2.97;;;;;;;16.44;62.23;102003.75;5061578;28;20079;-72
2023/09/26 04:41:06;;;;;;;5.43;2.78;;;;;;;16.42;62.20;101995.84;5057066;28;20049;-71
2023/09/26 04:43:35;;;;;;;6.75;2.80;;;;;;;16.42;62.11;102000.44;5060169;27;20045;-72
2023/09/26 04:46:10;;;;;;;7.15;3.40;;;;;;;16.28;62.15;101983.53;5054495;28;20050;-75
2023/09/26 04:48:38;;;;;;;5.82;3.20;;;;;;;16.39;62.09;101999.03;5052309;27;20116;-71
2023/09/26 04:51:08;;;;;;;4.75;3.10;;;;;;;16.38;62.10;101991.94;5059880;28;20052;-71
2023/09/26 04:53:37;;;;;;;8.18;3.22;;;;;;;16.38;62.23;101991.94;5059857;27;20045;-74
2023/09/26 04:56:05;;;;;;;5.45;3.08;;;;;;;16.38;62.21;101991.13;5060115;27;20115;-73
2023/09/26 04:58:34;;;;;;;5.38;2.33;;;;;;;16.36;62.03;101982.38;5060910;28;20059;-70
2023/09/26 05:01:14;;;;;;;5.65;3.08;;;;;;;16.37;62.21;101982.16;5060735;28;20045;-73
2023/09/26 05:03:43;;;;;;;6.80;3.05;;;;;;;16.24;61.96;101972.31;5061610;28;20055;-72
2023/09/26 05:06:12;;;;;;;6.90;3.30;;;;;;;16.36;62.23;101979.66;5061658;27;20049;-72
2023/09/26 05:08:42;;;;;;;8.07;3.38;;;;;;;16.35;62.18;101989.69;5059822;28;20891;-72
2023/09/26 05:11:13;;;;;;;7.43;3.38;;;;;;;16.35;62.33;101986.16;5061112;27;20049;-72
2023/09/26 05:13:43;;;;;;;5.40;3.03;;;;;;;16.33;62.20;101977.41;5061508;28;20045;-73
2023/09/26 05:16:11;;;;;;;5.93;3.03;;;;;;;16.34;62.34;101987.22;5074783;27;20041;-68
2023/09/26 05:18:39;;;;;;;5.47;2.85;;;;;;;16.32;62.22;101984.72;5061143;27;20068;-70
2023/09/26 05:21:07;;;;;;;4.95;3.33;;;;;;;16.32;62.28;101992.88;5058919;28;20060;-71
2023/09/26 05:23:35;;;;;;;6.95;3.15;;;;;;;16.32;62.28;101989.31;5057677;28;20116;-71
2023/09/26 05:26:08;;;;;;;6.43;3.15;;;;;;;16.29;62.10;101987.91;5061238;27;20105;-71
2023/09/26 05:28:36;;;;;;;7.00;3.38;;;;;;;16.28;62.23;101983.53;4701511;28;10000196;-69
2023/09/26 05:31:04;;;;;;;5.60;2.80;;;;;;;16.28;62.26;101983.53;5056620;27;20075;-72
2023/09/26 05:33:33;;;;;;;6.20;3.45;;;;;;;16.21;62.33;101977.38;5073354;27;20074;-68
2023/09/26 05:36:00;;;;;;;8.55;3.53;;;;;;;16.26;62.25;101980.22;5058196;27;20141;-68
2023/09/26 05:38:28;;;;;;;6.45;3.30;;;;;;;16.27;62.31;101987.31;5058919;27;20066;-69
2023/09/26 05:40:56;;;;;;;4.40;2.72;;;;;;;16.27;62.22;101990.84;5058637;27;20049;-70
2023/09/26 05:43:27;;;;;;;7.30;3.45;;;;;;;16.24;62.26;101991.31;5056563;28;20052;-68
2023/09/26 05:45:55;;;;;;;5.75;3.10;;;;;;;16.24;62.12;101991.31;5115230;27;20059;-68
2023/09/26 05:48:23;;;;;;;5.18;2.78;;;;;;;16.24;62.22;101988.59;5070817;27;20061;-68
2023/09/26 05:50:59;;;;;;;5.15;2.90;;;;;;;16.23;62.26;101989.66;5057365;27;20704;-64
2023/09/26 05:53:27;;;;;;;7.05;3.63;;;;;;;16.21;62.21;101993.66;5053617;27;20401;-67
2023/09/26 05:55:54;;;;;;;12.23;3.17;;;;;;;16.19;62.62;101998.50;5081586;27;20123;-67
2023/09/26 05:58:22;;;;;;;7.85;3.42;;;;;;;16.16;62.65;101993.53;5053898;27;20395;-67
2023/09/26 06:00:53;;;;;;;9.20;2.88;;;;;;;16.21;62.46;102004.50;5057313;27;20459;-68
2023/09/26 06:03:21;;;;;;;6.68;3.38;;;;;;;16.19;62.34;102004.75;4705375;28;10000299;-68
2023/09/26 06:05:49;;;;;;;8.07;3.30;;;;;;;16.18;62.36;102004.97;5065952;27;20197;-74
2023/09/26 06:08:17;;;;;;;11.07;4.07;;;;;;;16.16;63.02;102005.22;5064472;27;20150;-70
2023/09/26 06:10:45;;;;;;;7.47;3.78;;;;;;;16.17;62.83;101997.91;5045450;27;20158;-70
2023/09/26 06:13:13;;;;;;;10.63;3.72;;;;;;;16.14;62.70;101992.94;5056613;27;20133;-71
2023/09/26 06:15:41;;;;;;;7.10;3.72;;;;;;;16.17;62.74;102001.44;5061347;28;20079;-71
2023/09/26 06:18:10;;;;;;;8.88;2.90;;;;;;;16.17;62.52;101992.47;5060886;27;20045;-71
2023/09/26 06:20:40;;;;;;;9.38;3.03;;;;;;;16.16;62.54;101994.34;5073726;27;20105;-70
2023/09/26 06:23:08;;;;;;;8.40;3.10;;;;;;;16.18;62.56;101992.25;5067134;27;20069;-70
2023/09/26 06:25:35;;;;;;;4.93;2.85;;;;;;;16.17;62.49;101996.00;5073823;27;20494;-70
2023/09/26 06:28:17;;;;;;;5.55;3.05;;;;;;;16.13;62.46;101978.53;5059404;28;20061;-70
2023/09/26 06:30:45;;;;;;;5.95;2.92;;;;;;;16.17;62.56;101977.03;5058724;27;20089;-70
2023/09/26 06:33:14;;;;;;;8.70;3.38;;;;;;;16.18;62.48;101986.00;5062112;27;20060;-70
2023/09/26 06:35:42;;;;;;;6.70;3.05;;;;;;;16.18;62.54;101984.09;5059109;28;20113;-70
2023/09/26 06:38:11;;;;;;;7.40;3.40;;;;;;;16.18;62.37;101986.00;5058255;28;20061;-71
2023/09/26 06:40:39;;;;;;;5.63;3.25;;;;;;;16.18;62.39;101981.38;5064649;27;20526;-70
2023/09/26 06:43:07;;;;;;;6.32;2.92;;;;;;;16.18;62.41;101984.09;5058035;28;20072;-70
2023/09/26 06:45:39;;;;;;;7.97;3.05;;;;;;;16.18;62.42;101986.81;5060936;28;20546;-70
2023/09/26 06:48:07;;;;;;;7.85;3.28;;;;;;;16.18;62.44;101994.13;5075301;27;20045;-70
2023/09/26 06:50:42;;;;;;;4.90;3.33;;;;;;;16.20;62.42;101992.84;5061031;27;20047;-70
2023/09/26 06:53:10;;;;;;;8.05;3.22;;;;;;;16.20;62.46;101992.00;5060450;28;20391;-70
2023/09/26 06:55:39;;;;;;;5.57;2.88;;;;;;;16.21;62.35;101997.19;5054855;28;20093;-70
2023/09/26 06:58:07;;;;;;;5.00;2.70;;;;;;;16.20;62.38;101990.13;5085441;28;20103;-71
2023/09/26 07:00:35;;;;;;;5.82;2.75;;;;;;;16.20;62.49;102000.16;5054972;28;20053;-70
2023/09/26 07:03:02;;;;;;;5.10;3.20;;;;;;;16.22;62.45;101992.59;5058923;27;20068;-70
2023/09/26 07:05:30;;;;;;;4.85;2.67;;;;;;;16.18;62.49;101986.81;5102239;27;20050;-72
2023/09/26 07:08:00;;;;;;;7.05;3.13;;;;;;;16.24;62.45;102001.34;5062913;27;20105;-71
2023/09/26 07:10:28;;;;;;;6.10;2.80;;;;;;;16.23;62.40;101995.09;5060107;28;20049;-71
2023/09/26 07:12:55;;;;;;;4.38;2.83;;;;;;;16.24;62.50;102001.34;5060317;27;20064;-70
2023/09/26 07:15:28;;;;;;;5.88;2.80;;;;;;;16.22;62.51;102004.28;5058398;28;20045;-70
2023/09/26 07:17:56;;;;;;;7.05;3.10;;;;;;;16.24;62.62;102001.34;5062938;27;20108;-71
2023/09/26 07:20:24;;;;;;;6.68;2.70;;;;;;;16.23;62.58;101995.09;5058868;28;20075;-70
2023/09/26 07:22:53;;;;;;;4.15;2.65;;;;;;;16.25;62.42;101997.56;5060305;27;20053;-70
2023/09/26 07:25:22;;;;;;;4.32;2.40;;;;;;;16.25;62.60;101989.44;5054339;28;20097;-70
2023/09/26 07:27:50;;;;;;;6.30;2.65;;;;;;;16.24;62.54;101988.59;5049090;27;20137;-70
2023/09/26 07:30:18;;;;;;;10.00;2.72;;;;;;;16.23;62.45;101980.69;5089346;28;20092;-70
2023/09/26 07:32:45;;;;;;;3.55;2.55;;;;;;;16.27;62.50;101981.88;5094288;27;20044;-70
2023/09/26 07:35:14;;;;;;;4.57;2.92;;;;;;;16.28;62.49;101987.09;5111459;27;20052;-71
2023/09/26 07:37:42;;;;;;;6.68;2.72;;;;;;;16.29;62.46;101985.19;5061837;27;20041;-71
2023/09/26 07:40:10;;;;;;;5.13;2.65;;;;;;;16.26;62.41;101972.91;5063459;28;20049;-70
2023/09/26 07:42:40;;;;;;;4.28;2.30;;;;;;;16.32;62.48;101981.19;5062861;27;20131;-70
2023/09/26 07:45:09;;;;;;;4.35;2.53;;;;;;;16.31;62.39;101983.06;5060042;27;20041;-71
2023/09/26 07:47:37;;;;;;;4.63;2.70;;;;;;;16.32;62.50;101984.72;5076953;27;20052;-71
2023/09/26 07:50:07;;;;;;;5.05;3.00;;;;;;;16.33;62.56;101991.81;5062136;28;20061;-71
2023/09/26 07:52:35;;;;;;;5.50;2.80;;;;;;;16.32;62.70;101992.88;5053008;27;20371;-71
2023/09/26 07:55:02;;;;;;;6.57;2.70;;;;;;;16.34;62.64;101989.94;5064929;27;20056;-70
2023/09/26 07:57:30;;;;;;;4.78;2.58;;;;;;;16.23;62.58;101978.81;5092205;27;20047;-70
2023/09/26 07:59:59;;;;;;;4.10;2.65;;;;;;;16.31;62.55;101985.78;5060595;28;20053;-71
2023/09/26 08:02:27;;;;;;;5.97;2.50;;;;;;;16.35;62.71;101995.13;5062983;27;20057;-70
2023/09/26 08:04:55;;;;;;;4.57;2.83;;;;;;;16.36;62.70;101996.78;5070823;27;20559;-70
2023/09/26 08:07:23;;;;;;;3.95;2.40;;;;;;;16.39;62.83;101992.78;5063281;28;20117;-71
2023/09/26 08:09:51;;;;;;;3.65;2.22;;;;;;;16.40;62.64;101989.00;5059226;27;20102;-70
2023/09/26 08:12:19;;;;;;;5.47;2.30;;;;;;;16.40;62.68;101972.72;5062984;28;20571;-70
2023/09/26 08:14:46;;;;;;;6.97;2.40;;;;;;;16.36;62.85;101966.94;5059363;27;20072;-71
2023/09/26 08:17:15;;;;;;;4.22;2.40;;;;;;;16.39;62.86;101982.75;5052066;27;20057;-71
2023/09/26 08:19:43;;;;;;;5.28;2.47;;;;;;;16.40;62.92;101991.72;5057783;27;20084;-71
2023/09/26 08:22:11;;;;;;;10.48;2.58;;;;;;;16.40;63.00;101986.28;5063456;28;20056;-71
2023/09/26 08:24:39;;;;;;;4.25;2.47;;;;;;;16.41;62.97;101986.06;5064112;27;20045;-71
2023/09/26 08:27:07;;;;;;;5.38;2.53;;;;;;;16.43;63.05;101980.38;5081754;27;20044;-70
2023/09/26 08:29:35;;;;;;;4.05;2.08;;;;;;;16.32;62.85;101963.03;5060439;27;20045;-70
2023/09/26 08:32:03;;;;;;;3.78;2.28;;;;;;;16.44;63.02;101976.63;5052594;28;20086;-71
2023/09/26 08:34:33;;;;;;;5.88;2.38;;;;;;;16.44;62.99;101980.16;5054895;28;20048;-71
2023/09/26 08:37:00;;;;;;;4.75;2.83;;;;;;;16.45;63.04;101989.94;5060251;27;20076;-70
2023/09/26 08:39:29;;;;;;;4.80;2.40;;;;;;;16.46;62.94;101990.78;5064454;27;20049;-70
2023/09/26 08:41:59;;;;;;;4.43;2.35;;;;;;;16.46;62.98;101978.03;5062481;28;20063;-70
2023/09/26 08:44:27;;;;;;;5.85;2.78;;;;;;;16.44;63.02;101969.31;5061414;28;20053;-70
2023/09/26 08:46:55;;;;;;;4.00;2.53;;;;;;;16.50;63.09;101964.84;5069374;27;20097;-70
2023/09/26 08:49:24;;;;;;;3.78;2.58;;;;;;;16.51;63.14;101966.47;5054624;27;20049;-70
2023/09/26 08:51:53;;;;;;;3.60;2.30;;;;;;;16.49;63.11;101958.56;5061577;28;20095;-69
2023/09/26 08:54:21;;;;;;;6.28;2.47;;;;;;;16.54;63.20;101963.31;5062797;27;20060;-70
2023/09/26 08:56:49;;;;;;;4.70;2.22;;;;;;;16.55;63.28;101967.66;5076126;27;20675;-70
2023/09/26 08:59:21;;;;;;;3.72;2.35;;;;;;;16.56;63.05;101964.72;5071267;27;20048;-70
2023/09/26 09:01:50;;;;;;;6.00;2.50;;;;;;;16.57;63.18;101962.84;5059069;28;20562;-70
2023/09/26 09:04:21;;;;;;;7.03;2.28;;;;;;;16.59;63.29;101960.72;5058517;27;20072;-70
2023/09/26 09:06:49;;;;;;;8.02;2.53;;;;;;;16.60;63.42;101960.47;5093687;27;20060;-70
2023/09/26 09:09:18;;;;;;;4.47;2.40;;;;;;;16.57;63.41;101946.56;5062020;27;20049;-70
2023/09/26 09:11:46;;;;;;;3.45;2.33;;;;;;;16.64;63.60;101951.88;5061046;27;20045;-70
2023/09/26 09:14:14;;;;;;;4.50;2.53;;;;;;;16.60;63.51;101944.19;5062001;28;20373;-69
2023/09/26 09:16:54;;;;;;;4.65;2.63;;;;;;;16.65;63.65;101948.13;5059876;27;20049;-70
2023/09/26 09:19:22;;;;;;;3.38;2.17;;;;;;;16.69;63.77;101957.44;5062035;27;20061;-69
2023/09/26 09:21:50;;;;;;;3.80;2.35;;;;;;;16.70;63.73;101959.94;5059020;28;20056;-69
2023/09/26 09:24:36;;;;;;;2.67;1.80;;;;;;;16.72;63.93;101959.69;5061410;28;20586;-70
2023/09/26 09:27:04;;;;;;;5.03;2.17;;;;;;;16.73;63.98;101956.75;5052081;28;20056;-69
2023/09/26 09:29:32;;;;;;;3.67;2.22;;;;;;;16.66;63.99;101939.75;5060704;28;20056;-70
2023/09/26 09:31:59;;;;;;;5.28;2.78;;;;;;;16.78;64.08;101962.28;5052882;28;20138;-70
2023/09/26 09:34:28;;;;;;;6.03;2.22;;;;;;;16.78;63.90;101954.16;5056762;28;20049;-70
2023/09/26 09:36:56;;;;;;;3.85;2.03;;;;;;;16.82;64.23;101951.78;5055366;27;20130;-70
2023/09/26 09:39:25;;;;;;;4.88;2.47;;;;;;;16.84;64.21;101950.47;5056960;28;20060;-70
2023/09/26 09:41:58;;;;;;;4.18;2.22;;;;;;;16.86;64.37;101953.78;5059773;27;20049;-70
2023/09/26 09:44:26;;;;;;;4.00;2.13;;;;;;;16.88;64.33;101945.41;5061964;28;20060;-70
2023/09/26 09:47:02;;;;;;;3.38;2.08;;;;;;;16.85;64.31;101929.59;5061316;28;20055;-70
2023/09/26 09:49:32;;;;;;;4.18;2.30;;;;;;;16.91;64.49;101929.47;5061507;27;20061;-70
2023/09/26 09:52:04;;;;;;;5.15;2.38;;;;;;;16.93;64.56;101921.09;5053749;28;20045;-70
2023/09/26 09:54:34;;;;;;;4.85;2.38;;;;;;;16.96;64.42;101919.78;5055620;28;20059;-70
2023/09/26 09:57:10;;;;;;;9.63;2.63;;;;;;;16.99;64.50;101925.56;5085242;27;20043;-71
2023/09/26 09:59:39;;;;;;;4.57;2.45;;;;;;;17.00;64.46;101931.81;5050589;27;20049;-71
2023/09/26 10:02:07;;;;;;;4.18;2.30;;;;;;;17.04;64.51;101936.53;5054829;27;20049;-71
2023/09/26 10:04:37;;;;;;;6.28;2.45;;;;;;;17.06;64.57;101930.88;5078654;27;20047;-70
2023/09/26 10:07:06;;;;;;;4.70;2.58;;;;;;;17.08;64.68;101935.00;5074232;27;20476;-71
2023/09/26 10:09:37;;;;;;;3.72;1.88;;;;;;;17.12;64.52;101929.91;5077025;27;20057;-70
2023/09/26 10:12:06;;;;;;;5.22;2.30;;;;;;;17.14;64.88;101923.19;5061107;28;20061;-70
2023/09/26 10:14:34;;;;;;;4.78;1.70;;;;;;;17.17;64.77;101909.13;5061128;27;20048;-70
2023/09/26 10:17:02;;;;;;;3.30;2.22;;;;;;;17.21;64.89;101910.28;5063189;27;20052;-70
2023/09/26 10:19:32;;;;;;;4.70;2.28;;;;;;;17.23;65.10;101919.03;5063012;27;20132;-71
2023/09/26 10:22:21;;;;;;;2.92;1.60;;;;;;;17.28;65.19;101918.31;5055911;27;20048;-71
2023/09/26 10:24:52;;;;;;;8.10;2.38;;;;;;;17.32;65.56;101915.94;5060140;28;20197;-70
2023/09/26 10:27:24;;;;;;;4.22;2.17;;;;;;;17.33;65.47;101921.13;5057518;27;20061;-70
2023/09/26 10:30:01;;;;;;;4.18;2.00;;;;;;;17.36;65.27;101919.78;5057763;27;20117;-70
2023/09/26 10:32:32;;;;;;;5.82;2.40;;;;;;;17.38;65.06;101917.66;5052247;28;20045;-71
2023/09/26 10:35:03;;;;;;;6.63;2.00;;;;;;;17.40;65.06;101915.53;5058723;28;20062;-71
2023/09/26 10:37:32;;;;;;;2.47;1.65;;;;;;;17.43;65.14;101917.75;5055421;27;20054;-70
2023/09/26 10:40:01;;;;;;;3.08;1.73;;;;;;;17.46;65.24;101911.84;5069621;27;20130;-70
2023/09/26 10:42:30;;;;;;;3.38;1.90;;;;;;;17.43;66.02;101904.16;5047528;27;20071;-71
2023/09/26 10:45:00;;;;;;;2.75;1.80;;;;;;;17.48;65.85;101896.94;5059401;28;20102;-70
2023/09/26 10:47:28;;;;;;;3.90;2.05;;;;;;;17.54;66.17;101909.56;5060884;27;20168;-70
2023/09/26 10:49:57;;;;;;;4.57;1.95;;;;;;;17.57;65.96;101914.50;5059635;27;20067;-70
2023/09/26 10:52:29;;;;;;;4.05;2.03;;;;;;;17.51;66.04;101901.06;5068104;27;20045;-70
2023/09/26 10:54:58;;;;;;;3.88;1.88;;;;;;;17.63;65.79;101912.72;5062088;27;20049;-71
2023/09/26 10:57:27;;;;;;;4.78;1.88;;;;;;;17.61;65.56;101892.28;5057456;28;20136;-71
2023/09/26 10:59:55;;;;;;;5.47;2.58;;;;;;;17.67;65.94;101903.03;5058943;28;20063;-70
2023/09/26 11:02:23;;;;;;;2.25;1.58;;;;;;;17.71;66.33;101904.22;5060402;27;20076;-70
2023/09/26 11:04:52;;;;;;;5.07;1.75;;;;;;;17.74;66.09;101919.22;5088608;27;20434;-70
2023/09/26 11:07:20;;;;;;;5.05;2.20;;;;;;;17.78;66.17;101929.34;5072315;27;20053;-71
2023/09/26 11:10:12;;;;;;;3.17;1.90;;;;;;;17.83;66.08;101928.63;5063843;27;20048;-70
2023/09/26 11:12:42;;;;;;;4.20;1.70;;;;;;;17.85;65.96;101918.34;5066982;27;20057;-70
2023/09/26 11:15:11;;;;;;;5.82;1.77;;;;;;;17.87;65.98;101910.75;5101093;27;20051;-71
2023/09/26 11:17:39;;;;;;;2.97;1.88;;;;;;;17.89;65.67;101895.84;5058417;27;20053;-70
2023/09/26 11:20:11;;;;;;;2.30;1.55;;;;;;;17.89;65.66;101914.06;5061123;27;20398;-70
2023/09/26 11:22:47;;;;;;;4.22;1.98;;;;;;;17.93;65.53;101928.00;5064013;28;20053;-70
2023/09/26 11:25:16;;;;;;;2.63;1.67;;;;;;;17.94;65.69;101927.75;5062332;27;20418;-70
2023/09/26 11:27:46;;;;;;;3.47;1.80;;;;;;;17.95;65.77;101912.25;5059982;27;20056;-70
2023/09/26 11:30:17;;;;;;;2.90;1.60;;;;;;;17.99;65.75;101902.53;5062517;28;20069;-70
2023/09/26 11:32:48;;;;;;;1.60;1.25;;;;;;;17.99;65.66;101899.81;5064427;27;20049;-70